createdAt,value
2022-12-16T00:01:36.703Z,21.17
2022-12-16T00:03:41.090Z,21.65
2022-12-16T00:05:44.626Z,20.70
2022-12-16T00:07:48.088Z,22.45
2022-12-16T00:09:51.354Z,23.27
2022-12-16T00:11:54.882Z,22.63
2022-12-16T00:13:59.585Z,22.95
2022-12-16T00:16:07.163Z,22.90
2022-12-16T00:18:11.467Z,23.70
2022-12-16T00:20:14.975Z,23.00
2022-12-16T00:22:18.199Z,23.60
2022-12-16T00:24:21.381Z,25.92
2022-12-16T00:26:24.675Z,29.05
2022-12-16T00:28:28.176Z,25.75
2022-12-16T00:30:32.694Z,26.88
2022-12-16T00:32:35.834Z,26.25
2022-12-16T00:34:39.042Z,26.42
2022-12-16T00:36:42.253Z,24.67
2022-12-16T00:38:45.364Z,23.67
2022-12-16T00:40:48.797Z,22.80
2022-12-16T00:42:52.006Z,23.88
2022-12-16T00:44:55.226Z,23.10
2022-12-16T00:46:59.753Z,24.25
2022-12-16T00:49:02.868Z,23.50
2022-12-16T00:51:06.640Z,24.75
2022-12-16T00:53:09.824Z,22.75
2022-12-16T00:55:13.340Z,24.92
2022-12-16T00:57:16.575Z,24.08
2022-12-16T00:59:19.748Z,23.83
2022-12-16T01:01:23.041Z,24.85
2022-12-16T01:03:27.864Z,25.20
2022-12-16T01:05:31.080Z,24.27
2022-12-16T01:07:34.549Z,24.05
2022-12-16T01:09:37.891Z,24.38
2022-12-16T01:11:41.096Z,25.42
2022-12-16T01:13:44.984Z,25.45
2022-12-16T01:15:48.458Z,26.20
2022-12-16T01:17:51.681Z,25.60
2022-12-16T01:19:56.302Z,23.80
2022-12-16T01:21:59.535Z,24.13
2022-12-16T01:24:02.757Z,22.63
2022-12-16T01:26:06.614Z,23.20
2022-12-16T01:28:10.231Z,24.20
2022-12-16T01:30:14.349Z,24.75
2022-12-16T01:32:18.099Z,22.00
2022-12-16T01:34:21.387Z,25.15
2022-12-16T01:36:26.425Z,22.67
2022-12-16T01:38:30.116Z,22.75
2022-12-16T01:40:33.380Z,24.98
2022-12-16T01:42:36.787Z,23.02
2022-12-16T01:44:40.464Z,23.02
2022-12-16T01:46:45.338Z,23.98
2022-12-16T01:48:53.725Z,23.23
2022-12-16T01:51:04.804Z,23.23
2022-12-16T01:53:10.173Z,22.88
2022-12-16T01:55:21.360Z,23.13
2022-12-16T01:57:32.097Z,22.77
2022-12-16T01:59:38.783Z,23.23
2022-12-16T02:01:42.549Z,22.67
2022-12-16T02:03:46.303Z,21.63
2022-12-16T02:05:51.032Z,22.90
2022-12-16T02:08:02.254Z,22.30
2022-12-16T02:10:08.581Z,22.13
2022-12-16T02:12:29.321Z,21.48
2022-12-16T02:14:59.262Z,21.95
2022-12-16T02:17:08.732Z,21.75
2022-12-16T02:19:30.747Z,21.88
2022-12-16T02:21:48.716Z,21.08
2022-12-16T02:24:27.332Z,20.80
2022-12-16T02:27:12.516Z,20.60
2022-12-16T02:29:43.539Z,21.02
2022-12-16T02:31:57.817Z,20.05
2022-12-16T02:34:17.664Z,20.92
2022-12-16T02:36:37.115Z,20.50
2022-12-16T02:38:54.681Z,20.00
2022-12-16T02:41:04.651Z,21.52
2022-12-16T02:43:16.036Z,21.75
2022-12-16T02:45:23.219Z,21.50
2022-12-16T02:47:28.251Z,21.88
2022-12-16T02:49:48.517Z,20.17
2022-12-16T02:51:52.032Z,22.30
2022-12-16T02:53:56.699Z,24.75
2022-12-16T02:56:10.404Z,22.75
2022-12-16T02:58:20.250Z,22.70
2022-12-16T03:00:24.907Z,24.10
2022-12-16T03:02:38.116Z,22.85
2022-12-16T03:04:48.751Z,23.00
2022-12-16T03:06:54.471Z,22.55
2022-12-16T03:09:01.310Z,23.45
2022-12-16T03:11:08.163Z,24.27
2022-12-16T03:13:13.011Z,23.08
2022-12-16T03:15:20.535Z,23.15
2022-12-16T03:17:26.725Z,24.08
2022-12-16T03:19:32.531Z,22.08
2022-12-16T03:21:43.266Z,22.10
2022-12-16T03:23:52.980Z,21.50
2022-12-16T03:26:01.845Z,21.80
2022-12-16T03:28:12.332Z,19.95
2022-12-16T03:30:19.424Z,19.92
2022-12-16T03:32:30.081Z,19.75
2022-12-16T03:34:41.723Z,19.70
2022-12-16T03:36:49.895Z,20.48
2022-12-16T03:38:54.517Z,20.35
2022-12-16T03:40:59.345Z,20.80
2022-12-16T03:43:03.763Z,20.02
2022-12-16T03:45:09.823Z,20.42
2022-12-16T03:47:17.005Z,19.67
2022-12-16T03:49:23.679Z,20.83
2022-12-16T03:51:28.251Z,22.55
2022-12-16T03:53:31.872Z,19.95
2022-12-16T03:55:35.384Z,19.27
2022-12-16T03:57:38.577Z,21.05
2022-12-16T03:59:41.758Z,19.05
2022-12-16T04:01:45.076Z,20.75
2022-12-16T04:03:48.468Z,20.27
2022-12-16T04:05:52.029Z,19.85
2022-12-16T04:08:01.862Z,19.38
2022-12-16T04:10:07.246Z,19.38
2022-12-16T04:12:43.080Z,19.17
2022-12-16T04:15:03.918Z,20.13
2022-12-16T04:17:25.328Z,19.10
2022-12-16T04:19:48.695Z,19.05
2022-12-16T04:22:09.345Z,19.42
2022-12-16T04:24:20.683Z,19.08
2022-12-16T04:26:24.283Z,19.02
2022-12-16T04:28:27.524Z,18.98
2022-12-16T04:30:34.643Z,19.80
2022-12-16T04:32:51.883Z,19.02
2022-12-16T04:34:55.158Z,18.70
2022-12-16T04:37:18.556Z,18.13
2022-12-16T04:39:40.460Z,18.63
2022-12-16T04:42:01.041Z,18.00
2022-12-16T04:44:22.111Z,18.30
2022-12-16T04:46:43.314Z,19.23
2022-12-16T04:49:04.215Z,18.70
2022-12-16T04:51:24.717Z,18.05
2022-12-16T04:53:46.108Z,18.05
2022-12-16T04:56:08.426Z,16.90
2022-12-16T04:58:29.105Z,18.70
2022-12-16T05:00:49.653Z,18.55
2022-12-16T05:03:10.242Z,17.88
2022-12-16T05:05:31.332Z,17.15
2022-12-16T05:07:51.911Z,18.10
2022-12-16T05:10:12.672Z,17.38
2022-12-16T05:12:34.644Z,17.40
2022-12-16T05:14:55.450Z,16.55
2022-12-16T05:17:16.026Z,16.35
2022-12-16T05:19:37.172Z,16.55
2022-12-16T05:21:57.717Z,16.73
2022-12-16T05:24:18.377Z,16.40
2022-12-16T05:26:38.955Z,17.05
2022-12-16T05:29:15.403Z,17.30
2022-12-16T05:31:36.150Z,18.63
2022-12-16T05:33:57.272Z,17.73
2022-12-16T05:36:18.022Z,17.73
2022-12-16T05:38:38.735Z,18.92
2022-12-16T05:40:59.892Z,17.73
2022-12-16T05:43:21.990Z,17.02
2022-12-16T05:45:43.952Z,17.02
2022-12-16T05:48:07.228Z,17.83
2022-12-16T05:50:30.364Z,17.83
2022-12-16T05:53:08.077Z,18.00
2022-12-16T05:55:33.741Z,19.20
2022-12-16T05:57:54.829Z,18.52
2022-12-16T06:00:15.424Z,17.23
2022-12-16T06:02:37.636Z,17.88
2022-12-16T06:04:58.470Z,20.27
2022-12-16T06:07:19.113Z,19.13
2022-12-16T06:09:39.856Z,18.83
2022-12-16T06:12:00.382Z,17.27
2022-12-16T06:14:21.292Z,16.20
2022-12-16T06:16:42.210Z,16.08
2022-12-16T06:19:04.373Z,22.67
2022-12-16T06:21:24.966Z,16.50
2022-12-16T06:23:45.483Z,12.73
2022-12-16T06:26:05.948Z,14.63
2022-12-16T06:28:26.437Z,13.23
2022-12-16T06:30:47.138Z,13.60
2022-12-16T06:33:07.665Z,13.65
2022-12-16T06:35:30.016Z,8.30
2022-12-16T06:37:50.651Z,11.57
2022-12-16T06:40:11.109Z,10.48
2022-12-16T06:42:31.599Z,12.70
2022-12-16T06:44:52.422Z,11.60
2022-12-16T06:47:12.900Z,11.55
2022-12-16T06:49:33.721Z,14.95
2022-12-16T06:51:55.808Z,12.95
2022-12-16T06:54:16.362Z,14.02
2022-12-16T06:56:36.923Z,12.40
2022-12-16T06:58:57.457Z,12.10
2022-12-16T07:01:20.467Z,12.23
2022-12-16T07:03:41.806Z,11.88
2022-12-16T07:06:14.622Z,12.95
2022-12-16T07:08:36.489Z,13.05
2022-12-16T07:11:08.997Z,11.90
2022-12-16T07:13:34.898Z,12.25
2022-12-16T07:15:56.143Z,12.52
2022-12-16T07:18:16.795Z,13.38
2022-12-16T07:20:37.372Z,17.35
2022-12-16T07:23:10.714Z,12.88
2022-12-16T07:25:35.604Z,11.57
2022-12-16T07:27:56.170Z,12.65
2022-12-16T07:30:16.693Z,11.85
2022-12-16T07:32:37.419Z,11.27
2022-12-16T07:35:09.500Z,12.60
2022-12-16T07:37:30.239Z,11.85
2022-12-16T07:39:54.764Z,10.70
2022-12-16T07:42:17.868Z,11.63
2022-12-16T07:44:39.168Z,10.07
2022-12-16T07:46:59.793Z,10.32
2022-12-16T07:49:20.621Z,11.30
2022-12-16T07:51:41.230Z,10.32
2022-12-16T07:54:07.113Z,10.60
2022-12-16T07:56:28.363Z,11.25
2022-12-16T07:58:50.535Z,11.10
2022-12-16T08:01:11.264Z,10.25
2022-12-16T08:03:33.055Z,10.40
2022-12-16T08:05:54.200Z,10.18
2022-12-16T08:08:14.807Z,10.93
2022-12-16T08:10:35.453Z,9.60
2022-12-16T08:12:55.969Z,10.15
2022-12-16T08:15:20.234Z,9.43
2022-12-16T08:17:40.914Z,10.25
2022-12-16T08:20:01.736Z,10.13
2022-12-16T08:22:22.328Z,9.48
2022-12-16T08:24:46.813Z,9.35
2022-12-16T08:27:11.996Z,9.05
2022-12-16T08:29:44.366Z,9.85
2022-12-16T08:32:07.320Z,8.55
2022-12-16T08:34:28.453Z,9.27
2022-12-16T08:36:49.310Z,10.52
2022-12-16T08:39:09.807Z,10.30
2022-12-16T08:41:30.537Z,9.68
2022-12-16T08:43:52.503Z,10.23
2022-12-16T08:46:19.343Z,9.07
2022-12-16T08:48:41.538Z,9.50
2022-12-16T08:51:02.724Z,10.18
2022-12-16T08:53:23.777Z,8.85
2022-12-16T08:55:44.559Z,10.32
2022-12-16T08:58:12.156Z,8.75
2022-12-16T09:00:33.523Z,9.57
2022-12-16T09:03:08.736Z,8.65
2022-12-16T09:05:30.810Z,10.93
2022-12-16T09:07:51.435Z,9.75
2022-12-16T09:10:12.047Z,11.15
2022-12-16T09:12:32.422Z,10.93
2022-12-16T09:14:52.947Z,10.05
2022-12-16T09:17:14.376Z,12.05
2022-12-16T09:19:34.998Z,14.18
2022-12-16T09:21:56.972Z,15.93
2022-12-16T09:24:17.647Z,13.20
2022-12-16T09:26:38.272Z,9.80
2022-12-16T09:28:59.170Z,9.77
2022-12-16T09:31:19.849Z,9.38
2022-12-16T09:33:40.624Z,7.65
2022-12-16T09:36:01.197Z,7.57
2022-12-16T09:38:23.131Z,8.43
2022-12-16T09:40:44.143Z,7.53
2022-12-16T09:43:11.687Z,8.80
2022-12-16T09:45:41.477Z,9.63
2022-12-16T09:48:14.644Z,10.23
2022-12-16T09:50:41.972Z,8.35
2022-12-16T09:53:08.364Z,7.55
2022-12-16T09:55:42.713Z,6.85
2022-12-16T09:58:04.446Z,7.05
2022-12-16T10:00:41.589Z,8.43
2022-12-16T10:03:06.990Z,8.20
2022-12-16T10:05:31.062Z,7.30
2022-12-16T10:07:57.716Z,6.80
2022-12-16T10:10:30.487Z,9.25
2022-12-16T10:13:02.426Z,8.57
2022-12-16T10:15:42.953Z,7.65
2022-12-16T10:18:05.675Z,6.88
2022-12-16T10:20:34.609Z,6.88
2022-12-16T10:23:02.810Z,7.40
2022-12-16T10:25:33.162Z,7.45
2022-12-16T10:28:04.869Z,7.10
2022-12-16T10:30:32.988Z,53.55
2022-12-16T10:32:59.506Z,12.30
2022-12-16T10:35:21.366Z,9.68
2022-12-16T10:37:56.156Z,7.32
2022-12-16T10:40:19.048Z,7.40
2022-12-16T10:42:49.808Z,7.45
2022-12-16T10:45:16.728Z,9.32
2022-12-16T10:47:37.527Z,13.35
2022-12-16T10:49:58.062Z,8.57
2022-12-16T10:52:19.339Z,11.00
2022-12-16T10:54:50.494Z,7.72
2022-12-16T10:57:21.803Z,8.30
2022-12-16T10:59:53.492Z,8.75
2022-12-16T11:02:32.593Z,7.82
2022-12-16T11:04:56.326Z,7.60
2022-12-16T11:07:17.143Z,7.82
2022-12-16T11:09:46.379Z,6.90
2022-12-16T11:12:15.425Z,6.50
2022-12-16T11:14:50.290Z,6.95
2022-12-16T11:17:37.362Z,6.43
2022-12-16T11:19:58.486Z,7.40
2022-12-16T11:22:25.798Z,7.90
2022-12-16T11:24:47.122Z,6.05
2022-12-16T11:27:12.369Z,5.68
2022-12-16T11:29:35.987Z,6.22
2022-12-16T11:31:59.799Z,6.72
2022-12-16T11:34:24.298Z,6.78
2022-12-16T11:37:00.698Z,7.95
2022-12-16T11:39:22.328Z,5.55
2022-12-16T11:41:48.125Z,6.15
2022-12-16T11:44:11.218Z,5.68
2022-12-16T11:46:40.209Z,5.95
2022-12-16T11:49:05.983Z,5.25
2022-12-16T11:51:33.761Z,5.68
2022-12-16T11:54:02.618Z,6.13
2022-12-16T11:56:24.722Z,6.95
2022-12-16T11:58:55.257Z,7.95
2022-12-16T12:01:29.437Z,8.65
2022-12-16T12:03:52.441Z,7.63
2022-12-16T12:06:24.628Z,7.18
2022-12-16T12:08:53.805Z,9.85
2022-12-16T12:11:28.521Z,10.98
2022-12-16T12:14:06.727Z,8.68
2022-12-16T12:16:36.351Z,9.20
2022-12-16T12:19:05.313Z,8.25
2022-12-16T12:21:34.836Z,5.78
2022-12-16T12:24:08.444Z,7.53
2022-12-16T12:26:32.273Z,6.55
2022-12-16T12:29:06.014Z,6.55
2022-12-16T12:31:39.869Z,4.72
2022-12-16T12:34:13.223Z,5.28
2022-12-16T12:36:43.104Z,5.55
2022-12-16T12:39:20.228Z,6.35
2022-12-16T12:42:00.469Z,6.15
2022-12-16T12:44:37.094Z,7.57
2022-12-16T12:47:16.480Z,5.45
2022-12-16T12:49:48.486Z,6.28
2022-12-16T12:52:19.525Z,5.80
2022-12-16T12:54:49.737Z,6.43
2022-12-16T12:57:12.318Z,7.47
2022-12-16T12:59:41.027Z,6.38
2022-12-16T13:02:04.244Z,6.43
2022-12-16T13:04:31.454Z,7.03
2022-12-16T13:06:54.389Z,9.43
2022-12-16T13:09:17.429Z,6.40
2022-12-16T13:11:39.718Z,5.72
2022-12-16T13:14:00.318Z,6.47
2022-12-16T13:16:23.412Z,6.60
2022-12-16T13:18:53.703Z,6.57
2022-12-16T13:21:16.471Z,5.43
2022-12-16T13:23:50.308Z,9.88
2022-12-16T13:26:11.820Z,7.13
2022-12-16T13:28:42.367Z,6.05
2022-12-16T13:31:25.654Z,5.85
2022-12-16T13:33:49.776Z,5.55
2022-12-16T13:36:15.051Z,89.22
2022-12-16T13:38:40.125Z,39.03
2022-12-16T13:41:14.782Z,11.27
2022-12-16T13:44:11.196Z,7.18
2022-12-16T13:46:35.395Z,7.07
2022-12-16T13:48:59.678Z,6.38
2022-12-16T13:51:20.252Z,6.90
2022-12-16T13:53:41.174Z,6.43
2022-12-16T13:56:22.025Z,6.93
2022-12-16T13:58:54.990Z,6.38
2022-12-16T14:01:25.002Z,6.28
2022-12-16T14:03:58.581Z,6.40
2022-12-16T14:06:23.223Z,6.63
2022-12-16T14:08:45.477Z,6.47
2022-12-16T14:11:17.155Z,6.57
2022-12-16T14:13:45.470Z,8.38
2022-12-16T14:16:16.555Z,8.90
2022-12-16T14:18:59.021Z,7.50
2022-12-16T14:21:22.077Z,8.43
2022-12-16T14:23:58.534Z,7.70
2022-12-16T14:26:20.582Z,6.43
2022-12-16T14:28:47.196Z,6.55
2022-12-16T14:31:07.918Z,7.80
2022-12-16T14:33:44.667Z,6.00
2022-12-16T14:36:08.431Z,6.50
2022-12-16T14:38:42.235Z,6.20
2022-12-16T14:41:10.438Z,6.10
2022-12-16T14:43:34.945Z,11.27
2022-12-16T14:45:57.599Z,8.63
2022-12-16T14:48:21.368Z,7.70
2022-12-16T14:50:46.790Z,9.32
2022-12-16T14:53:07.332Z,8.43
2022-12-16T14:55:34.855Z,8.77
2022-12-16T14:57:55.412Z,10.32
2022-12-16T15:00:33.415Z,7.75
2022-12-16T15:02:57.965Z,6.82
2022-12-16T15:05:19.767Z,8.52
2022-12-16T15:07:41.725Z,8.02
2022-12-16T15:10:05.614Z,5.25
2022-12-16T15:12:28.436Z,5.68
2022-12-16T15:14:51.498Z,5.70
2022-12-16T15:17:13.786Z,6.10
2022-12-16T15:19:39.869Z,6.03
2022-12-16T15:22:01.470Z,5.10
2022-12-16T15:24:29.418Z,6.30
2022-12-16T15:26:54.193Z,6.15
2022-12-16T15:29:15.852Z,5.10
2022-12-16T15:31:44.082Z,5.60
2022-12-16T15:34:16.120Z,10.45
2022-12-16T15:36:44.800Z,5.95
2022-12-16T15:39:05.541Z,7.47
2022-12-16T15:41:42.966Z,5.72
2022-12-16T15:44:07.714Z,5.30
2022-12-16T15:46:41.232Z,5.35
2022-12-16T15:49:02.233Z,4.88
2022-12-16T15:51:23.253Z,5.80
2022-12-16T15:53:49.821Z,5.70
2022-12-16T15:56:15.469Z,6.38
2022-12-16T15:58:43.880Z,6.07
2022-12-16T16:01:16.742Z,5.63
2022-12-16T16:03:42.291Z,5.95
2022-12-16T16:06:03.133Z,7.03
2022-12-16T16:08:24.145Z,7.32
2022-12-16T16:10:45.024Z,9.57
2022-12-16T16:13:05.528Z,8.73
2022-12-16T16:15:30.852Z,12.13
2022-12-16T16:17:51.674Z,10.20
2022-12-16T16:20:12.370Z,8.43
2022-12-16T16:22:34.935Z,8.38
2022-12-16T16:24:55.539Z,7.70
2022-12-16T16:27:20.600Z,7.80
2022-12-16T16:29:41.163Z,10.80
2022-12-16T16:32:04.559Z,8.52
2022-12-16T16:34:25.707Z,9.63
2022-12-16T16:36:46.319Z,7.63
2022-12-16T16:39:06.932Z,6.93
2022-12-16T16:41:33.634Z,7.55
2022-12-16T16:43:54.383Z,10.75
2022-12-16T16:46:15.582Z,6.47
2022-12-16T16:48:38.164Z,5.93
2022-12-16T16:51:00.085Z,6.43
2022-12-16T16:53:21.088Z,6.40
2022-12-16T16:55:43.144Z,6.20
2022-12-16T16:58:04.718Z,6.00
2022-12-16T17:00:28.784Z,6.70
2022-12-16T17:02:49.845Z,6.88
2022-12-16T17:05:11.801Z,5.30
2022-12-16T17:07:32.692Z,5.88
2022-12-16T17:09:53.363Z,5.65
2022-12-16T17:12:14.143Z,6.95
2022-12-16T17:14:39.272Z,5.88
2022-12-16T17:16:59.872Z,5.57
2022-12-16T17:19:21.583Z,5.80
2022-12-16T17:21:43.564Z,5.90
2022-12-16T17:24:04.673Z,10.00
2022-12-16T17:26:26.931Z,6.75
2022-12-16T17:28:47.522Z,7.00
2022-12-16T17:31:08.259Z,9.52
2022-12-16T17:33:29.255Z,6.95
2022-12-16T17:35:49.837Z,6.60
2022-12-16T17:38:11.666Z,6.30
2022-12-16T17:40:32.314Z,6.57
2022-12-16T17:42:52.970Z,8.10
2022-12-16T17:45:13.849Z,9.30
2022-12-16T17:47:34.806Z,7.78
2022-12-16T17:49:55.656Z,9.45
2022-12-16T17:52:21.864Z,7.75
2022-12-16T17:54:44.379Z,8.68
2022-12-16T17:57:04.895Z,9.13
2022-12-16T17:59:26.677Z,10.30
2022-12-16T18:01:47.757Z,21.35
2022-12-16T18:04:09.364Z,12.35
2022-12-16T18:06:29.938Z,13.48
2022-12-16T18:08:50.621Z,16.83
2022-12-16T18:11:13.708Z,22.92
2022-12-16T18:13:33.902Z,27.60
2022-12-16T18:15:54.796Z,26.05
2022-12-16T18:18:15.806Z,12.25
2022-12-16T18:20:42.046Z,9.68
2022-12-16T18:23:02.981Z,9.18
2022-12-16T18:25:24.361Z,8.63
2022-12-16T18:27:46.819Z,8.07
2022-12-16T18:30:07.514Z,10.13
2022-12-16T18:32:33.391Z,10.15
2022-12-16T18:34:55.864Z,8.57
2022-12-16T18:37:16.799Z,9.45
2022-12-16T18:39:37.817Z,9.82
2022-12-16T18:42:01.729Z,10.57
2022-12-16T18:44:25.750Z,10.45
2022-12-16T18:46:46.690Z,12.07
2022-12-16T18:49:07.283Z,13.73
2022-12-16T18:51:27.811Z,11.88
2022-12-16T18:53:48.593Z,12.70
2022-12-16T18:56:18.718Z,15.18
2022-12-16T18:58:54.609Z,16.95
2022-12-16T19:01:22.200Z,19.70
2022-12-16T19:03:43.295Z,81.13
2022-12-16T19:06:11.492Z,84.13
2022-12-16T19:08:32.728Z,33.38
2022-12-16T19:10:53.662Z,18.27
2022-12-16T19:13:15.314Z,18.23
2022-12-16T19:15:40.985Z,20.05
2022-12-16T19:18:03.706Z,51.58
2022-12-16T19:20:32.904Z,29.42
2022-12-16T19:22:54.859Z,22.58
2022-12-16T19:25:16.762Z,16.02
2022-12-16T19:27:37.335Z,10.27
2022-12-16T19:29:58.200Z,9.82
2022-12-16T19:32:19.061Z,12.10
2022-12-16T19:34:41.174Z,20.17
2022-12-16T19:37:02.196Z,17.17
2022-12-16T19:39:23.137Z,13.57
2022-12-16T19:41:43.777Z,13.02
2022-12-16T19:44:06.348Z,13.38
2022-12-16T19:46:27.410Z,13.57
2022-12-16T19:48:48.788Z,12.45
2022-12-16T19:51:17.540Z,12.48
2022-12-16T19:53:38.291Z,11.60
2022-12-16T19:55:58.915Z,11.23
2022-12-16T19:58:19.665Z,9.20
2022-12-16T20:00:40.291Z,12.00
2022-12-16T20:03:01.027Z,11.88
2022-12-16T20:05:21.999Z,10.48
2022-12-16T20:07:43.961Z,12.48
2022-12-16T20:10:06.950Z,11.60
2022-12-16T20:12:28.040Z,11.15
2022-12-16T20:14:49.394Z,9.13
2022-12-16T20:17:10.148Z,10.70
2022-12-16T20:19:30.631Z,9.57
2022-12-16T20:21:54.737Z,10.43
2022-12-16T20:24:18.500Z,10.68
2022-12-16T20:26:39.401Z,10.68
2022-12-16T20:29:00.716Z,11.82
2022-12-16T20:31:24.322Z,10.63
2022-12-16T20:33:45.723Z,10.00
2022-12-16T20:36:14.795Z,11.77
2022-12-16T20:38:35.754Z,11.20
2022-12-16T20:40:57.834Z,11.77
2022-12-16T20:43:18.745Z,10.77
2022-12-16T20:45:39.764Z,9.05
2022-12-16T20:48:00.383Z,9.75
2022-12-16T20:50:21.363Z,9.60
2022-12-16T20:52:42.290Z,9.93
2022-12-16T20:55:03.048Z,9.90
2022-12-16T20:57:25.396Z,11.52
2022-12-16T20:59:46.089Z,11.45
2022-12-16T21:04:47.284Z,14.25
2022-12-16T21:07:07.986Z,13.23
2022-12-16T21:09:28.874Z,12.55
2022-12-16T21:11:49.772Z,12.73
2022-12-16T21:14:12.033Z,15.65
2022-12-16T21:16:33.130Z,12.95
2022-12-16T21:18:53.946Z,13.25
2022-12-16T21:21:15.358Z,16.02
2022-12-16T21:23:36.479Z,19.77
2022-12-16T21:25:57.569Z,15.98
2022-12-16T21:28:18.617Z,12.45
2022-12-16T21:30:40.603Z,10.77
2022-12-16T21:33:01.280Z,9.75
2022-12-16T21:35:18.836Z,10.50
2022-12-16T21:37:39.676Z,12.23
2022-12-16T21:40:00.517Z,15.15
2022-12-16T21:42:21.315Z,18.25
2022-12-16T21:44:41.870Z,20.23
2022-12-16T21:47:03.805Z,21.13
2022-12-16T21:49:24.346Z,20.45
2022-12-16T21:51:45.046Z,19.10
2022-12-16T21:54:09.581Z,21.10
2022-12-16T21:56:30.631Z,21.75
2022-12-16T21:58:51.246Z,16.13
2022-12-16T22:01:13.625Z,13.65
2022-12-16T22:03:35.841Z,13.68
2022-12-16T22:05:56.883Z,16.63
2022-12-16T22:08:17.482Z,19.40
2022-12-16T22:10:43.399Z,19.05
2022-12-16T22:13:04.348Z,14.75
2022-12-16T22:15:27.169Z,16.45
2022-12-16T22:17:50.675Z,16.25
2022-12-16T22:20:20.064Z,16.35
2022-12-16T22:22:40.699Z,17.95
2022-12-16T22:25:01.337Z,13.85
2022-12-16T22:27:22.212Z,12.55
2022-12-16T22:29:43.047Z,12.43
2022-12-16T22:32:03.707Z,13.45
2022-12-16T22:34:24.461Z,17.50
2022-12-16T22:36:42.972Z,13.32
2022-12-16T22:39:03.500Z,17.55
2022-12-16T22:41:24.661Z,18.83
2022-12-16T22:43:49.426Z,17.98
2022-12-16T22:46:17.513Z,16.40
2022-12-16T22:48:38.226Z,12.18
2022-12-16T22:50:58.833Z,9.73
2022-12-16T22:53:20.855Z,10.40
2022-12-16T22:55:41.360Z,11.95
2022-12-16T22:58:02.176Z,12.00
2022-12-16T23:00:24.140Z,13.18
2022-12-16T23:02:44.717Z,12.65
2022-12-16T23:05:05.303Z,13.27
2022-12-16T23:07:27.308Z,12.27
2022-12-16T23:09:57.897Z,11.30
2022-12-16T23:12:18.462Z,12.70
2022-12-16T23:14:42.831Z,12.95
2022-12-16T23:17:04.124Z,13.98
2022-12-16T23:19:24.929Z,14.82
2022-12-16T23:21:50.962Z,14.80
2022-12-16T23:24:11.778Z,15.77
2022-12-16T23:26:34.008Z,14.77
2022-12-16T23:28:54.637Z,15.35
2022-12-16T23:31:17.234Z,18.55
2022-12-16T23:32:30.478Z,13.25
2022-12-16T23:33:38.656Z,18.33
2022-12-16T23:35:59.498Z,16.35
2022-12-16T23:38:20.924Z,16.52
2022-12-16T23:40:41.463Z,14.63
2022-12-16T23:43:13.317Z,10.57
2022-12-16T23:45:34.828Z,9.70
2022-12-16T23:47:55.801Z,10.07
2022-12-16T23:50:17.272Z,9.90
2022-12-16T23:52:40.086Z,9.95
2022-12-16T23:55:00.648Z,9.75
2022-12-16T23:57:21.051Z,11.43
2022-12-16T23:59:42.960Z,11.48
